Milford, Maine
Current Conditions -  °F | °C
As of 11:39 AM on Tuesday 27 Jan 2015 (Local Time) from KBGR Reporting Station
Moderate Snow Moderate Snow  
Wind Chill: -12°   Ceiling: 800
Heat Index: 10°   Visibility: 0.5mi
Dew Point:   Wind: 28mph
Humidity: 87%   Direction: 10°N
Pressure: 29.7"   Gusts: 38mph
Location:  44.95°N, 68.64°W
Report Text: KBGR 271639Z 01024G33KT 1/2SM R15/2400V3500FT SN FZFG VV008 M12/M14 A2970 RMK AO2 PK WND 01036/1607 P0001 T11221139
Loading
Personal Weather Stations






























Interactive Weather Map New forecast layout! Learn more

10-Day Weather Forecast

Advertisements
Track Severe Weather on mobile